sensor_id;sensor_type;location;lat;lon;timestamp;pressure;altitude;pressure_sealevel;temperature;humidity
62420;BME280;48460;51.616;5.426;2023-03-14T00:00:54;98813.44;;;9.84;100.00
62420;BME280;48460;51.616;5.426;2023-03-14T00:03:30;98809.00;;;9.84;100.00
62420;BME280;48460;51.616;5.426;2023-03-14T00:06:04;98812.13;;;9.78;100.00
62420;BME280;48460;51.616;5.426;2023-03-14T00:08:49;98811.06;;;9.80;100.00
62420;BME280;48460;51.616;5.426;2023-03-14T00:11:24;98820.72;;;9.80;100.00
62420;BME280;48460;51.616;5.426;2023-03-14T00:14:03;98823.13;;;9.72;100.00
62420;BME280;48460;51.616;5.426;2023-03-14T00:16:31;98813.34;;;9.74;100.00
62420;BME280;48460;51.616;5.426;2023-03-14T00:19:08;98815.94;;;9.85;100.00
62420;BME280;48460;51.616;5.426;2023-03-14T00:21:46;98802.72;;;9.75;100.00
62420;BME280;48460;51.616;5.426;2023-03-14T00:24:15;98805.47;;;9.74;100.00
62420;BME280;48460;51.616;5.426;2023-03-14T00:26:48;98805.47;;;9.74;100.00
62420;BME280;48460;51.616;5.426;2023-03-14T00:29:13;98804.72;;;9.83;100.00
62420;BME280;48460;51.616;5.426;2023-03-14T00:31:42;98822.53;;;9.79;100.00
62420;BME280;48460;51.616;5.426;2023-03-14T00:34:12;98827.78;;;9.79;100.00
62420;BME280;48460;51.616;5.426;2023-03-14T00:36:40;98840.88;;;9.91;100.00
62420;BME280;48460;51.616;5.426;2023-03-14T00:39:10;98837.53;;;9.89;100.00
62420;BME280;48460;51.616;5.426;2023-03-14T00:41:43;98840.72;;;9.92;100.00
62420;BME280;48460;51.616;5.426;2023-03-14T00:44:22;98843.94;;;9.96;100.00
62420;BME280;48460;51.616;5.426;2023-03-14T00:46:50;98826.56;;;9.84;100.00
62420;BME280;48460;51.616;5.426;2023-03-14T00:49:36;98823.44;;;9.90;100.00
62420;BME280;48460;51.616;5.426;2023-03-14T00:52:16;98843.50;;;9.91;100.00
62420;BME280;48460;51.616;5.426;2023-03-14T00:54:48;98839.69;;;9.84;100.00
62420;BME280;48460;51.616;5.426;2023-03-14T00:57:15;98839.34;;;9.77;100.00
62420;BME280;48460;51.616;5.426;2023-03-14T00:59:44;98828.59;;;9.80;100.00
62420;BME280;48460;51.616;5.426;2023-03-14T01:02:35;98843.28;;;9.82;100.00
62420;BME280;48460;51.616;5.426;2023-03-14T01:05:15;98821.09;;;9.75;100.00
62420;BME280;48460;51.616;5.426;2023-03-14T01:08:00;98825.25;;;9.78;100.00
62420;BME280;48460;51.616;5.426;2023-03-14T01:10:47;98823.59;;;9.77;100.00
62420;BME280;48460;51.616;5.426;2023-03-14T01:13:18;98820.16;;;9.76;100.00
62420;BME280;48460;51.616;5.426;2023-03-14T01:15:48;98816.94;;;9.73;100.00
62420;BME280;48460;51.616;5.426;2023-03-14T01:18:21;98830.16;;;9.82;100.00
62420;BME280;48460;51.616;5.426;2023-03-14T01:20:49;98826.59;;;9.72;100.00
62420;BME280;48460;51.616;5.426;2023-03-14T01:23:25;98819.47;;;9.63;100.00
62420;BME280;48460;51.616;5.426;2023-03-14T01:25:53;98815.53;;;9.57;100.00
62420;BME280;48460;51.616;5.426;2023-03-14T01:31:10;98797.41;;;9.54;100.00
62420;BME280;48460;51.616;5.426;2023-03-14T01:36:34;98811.09;;;9.69;100.00
62420;BME280;48460;51.616;5.426;2023-03-14T01:39:18;98807.88;;;9.66;100.00
62420;BME280;48460;51.616;5.426;2023-03-14T01:41:53;98806.94;;;9.67;100.00
62420;BME280;48460;51.616;5.426;2023-03-14T01:44:54;98808.13;;;9.63;100.00
62420;BME280;48460;51.616;5.426;2023-03-14T01:47:26;98792.78;;;9.58;100.00
62420;BME280;48460;51.616;5.426;2023-03-14T01:53:18;98786.56;;;9.59;100.00
62420;BME280;48460;51.616;5.426;2023-03-14T01:55:57;98789.91;;;9.61;100.00
62420;BME280;48460;51.616;5.426;2023-03-14T01:58:28;98789.16;;;9.70;100.00
62420;BME280;48460;51.616;5.426;2023-03-14T02:01:16;98789.66;;;9.64;100.00
62420;BME280;48460;51.616;5.426;2023-03-14T02:03:51;98776.72;;;9.40;100.00
62420;BME280;48460;51.616;5.426;2023-03-14T02:06:26;98775.78;;;9.30;100.00
62420;BME280;48460;51.616;5.426;2023-03-14T02:08:53;98772.00;;;9.23;100.00
62420;BME280;48460;51.616;5.426;2023-03-14T02:11:35;98778.22;;;9.10;100.00
62420;BME280;48460;51.616;5.426;2023-03-14T02:14:16;98775.59;;;9.10;100.00
62420;BME280;48460;51.616;5.426;2023-03-14T02:17:03;98788.69;;;9.10;100.00
62420;BME280;48460;51.616;5.426;2023-03-14T02:22:17;98768.78;;;9.08;100.00
62420;BME280;48460;51.616;5.426;2023-03-14T02:28:27;98762.47;;;8.99;100.00
62420;BME280;48460;51.616;5.426;2023-03-14T02:31:05;98764.38;;;8.97;100.00
62420;BME280;48460;51.616;5.426;2023-03-14T02:33:49;98758.31;;;8.97;100.00
62420;BME280;48460;51.616;5.426;2023-03-14T02:36:17;98764.03;;;9.02;100.00
62420;BME280;48460;51.616;5.426;2023-03-14T02:39:00;98773.53;;;9.14;100.00
62420;BME280;48460;51.616;5.426;2023-03-14T02:41:39;98754.72;;;9.09;100.00
62420;BME280;48460;51.616;5.426;2023-03-14T02:44:18;98760.44;;;9.14;100.00
62420;BME280;48460;51.616;5.426;2023-03-14T02:46:54;98760.66;;;9.22;100.00
62420;BME280;48460;51.616;5.426;2023-03-14T02:49:40;98753.97;;;9.29;100.00
62420;BME280;48460;51.616;5.426;2023-03-14T02:52:11;98755.88;;;9.27;100.00
62420;BME280;48460;51.616;5.426;2023-03-14T02:54:49;98765.53;;;9.27;100.00
62420;BME280;48460;51.616;5.426;2023-03-14T02:57:45;98754.94;;;9.28;100.00
62420;BME280;48460;51.616;5.426;2023-03-14T03:00:11;98768.13;;;9.38;100.00
62420;BME280;48460;51.616;5.426;2023-03-14T03:02:50;98757.63;;;9.38;100.00
62420;BME280;48460;51.616;5.426;2023-03-14T03:05:47;98758.00;;;9.33;100.00
62420;BME280;48460;51.616;5.426;2023-03-14T03:08:31;98762.31;;;9.34;100.00
62420;BME280;48460;51.616;5.426;2023-03-14T03:11:23;98772.88;;;9.44;100.00
62420;BME280;48460;51.616;5.426;2023-03-14T03:14:03;98764.69;;;9.38;100.00
62420;BME280;48460;51.616;5.426;2023-03-14T03:16:44;98756.69;;;9.28;100.00
62420;BME280;48460;51.616;5.426;2023-03-14T03:19:23;98759.78;;;9.33;100.00
62420;BME280;48460;51.616;5.426;2023-03-14T03:21:58;98766.59;;;9.35;100.00
62420;BME280;48460;51.616;5.426;2023-03-14T03:24:29;98753.13;;;9.29;100.00
62420;BME280;48460;51.616;5.426;2023-03-14T03:27:09;98749.53;;;9.41;100.00
62420;BME280;48460;51.616;5.426;2023-03-14T03:29:55;98738.81;;;9.33;100.00
62420;BME280;48460;51.616;5.426;2023-03-14T03:32:39;98738.81;;;9.33;100.00
62420;BME280;48460;51.616;5.426;2023-03-14T03:35:07;98727.38;;;9.34;100.00
62420;BME280;48460;51.616;5.426;2023-03-14T03:38:09;98744.78;;;9.35;100.00
62420;BME280;48460;51.616;5.426;2023-03-14T03:41:01;98738.81;;;9.33;100.00
62420;BME280;48460;51.616;5.426;2023-03-14T03:43:47;98749.06;;;9.36;100.00
62420;BME280;48460;51.616;5.426;2023-03-14T03:46:43;98738.94;;;9.31;100.00
62420;BME280;48460;51.616;5.426;2023-03-14T03:49:29;98743.22;;;9.32;100.00
62420;BME280;48460;51.616;5.426;2023-03-14T03:52:06;98748.69;;;9.41;100.00
62420;BME280;48460;51.616;5.426;2023-03-14T03:54:38;98745.59;;;9.35;100.00
62420;BME280;48460;51.616;5.426;2023-03-14T03:57:10;98741.44;;;9.33;100.00
62420;BME280;48460;51.616;5.426;2023-03-14T03:59:55;98730.22;;;9.31;100.00
62420;BME280;48460;51.616;5.426;2023-03-14T04:02:31;98725.09;;;9.29;100.00
62420;BME280;48460;51.616;5.426;2023-03-14T04:05:08;98726.19;;;9.27;100.00
62420;BME280;48460;51.616;5.426;2023-03-14T04:07:44;98728.44;;;9.31;100.00
62420;BME280;48460;51.616;5.426;2023-03-14T04:10:34;98719.63;;;9.32;100.00
62420;BME280;48460;51.616;5.426;2023-03-14T04:13:13;98732.84;;;9.31;100.00
62420;BME280;48460;51.616;5.426;2023-03-14T04:15:44;98750.94;;;9.45;100.00
62420;BME280;48460;51.616;5.426;2023-03-14T04:18:20;98723.56;;;9.27;100.00
62420;BME280;48460;51.616;5.426;2023-03-14T04:21:18;98727.50;;;9.21;100.00
62420;BME280;48460;51.616;5.426;2023-03-14T04:23:48;98729.69;;;9.16;100.00
62420;BME280;48460;51.616;5.426;2023-03-14T04:26:21;98730.50;;;9.17;100.00
62420;BME280;48460;51.616;5.426;2023-03-14T04:29:11;98729.56;;;8.95;100.00
62420;BME280;48460;51.616;5.426;2023-03-14T04:31:51;98733.91;;;8.85;100.00
62420;BME280;48460;51.616;5.426;2023-03-14T04:34:27;98736.16;;;8.78;100.00
62420;BME280;48460;51.616;5.426;2023-03-14T04:36:59;98736.16;;;8.78;100.00
62420;BME280;48460;51.616;5.426;2023-03-14T04:39:24;98733.19;;;8.72;100.00
62420;BME280;48460;51.616;5.426;2023-03-14T04:42:07;98731.75;;;8.67;100.00
62420;BME280;48460;51.616;5.426;2023-03-14T04:44:45;98728.53;;;8.64;100.00
62420;BME280;48460;51.616;5.426;2023-03-14T04:47:22;98720.34;;;8.57;100.00
62420;BME280;48460;51.616;5.426;2023-03-14T04:50:04;98723.66;;;8.59;100.00
62420;BME280;48460;51.616;5.426;2023-03-14T04:52:57;98724.38;;;8.50;100.00
62420;BME280;48460;51.616;5.426;2023-03-14T04:55:25;98736.03;;;8.46;100.00
62420;BME280;48460;51.616;5.426;2023-03-14T05:04:04;98721.78;;;8.39;100.00
62420;BME280;48460;51.616;5.426;2023-03-14T05:06:38;98712.66;;;8.32;100.00
62420;BME280;48460;51.616;5.426;2023-03-14T05:09:17;98719.78;;;8.30;100.00
62420;BME280;48460;51.616;5.426;2023-03-14T05:11:56;98714.34;;;8.21;100.00
62420;BME280;48460;51.616;5.426;2023-03-14T05:14:27;98712.19;;;8.15;100.00
62420;BME280;48460;51.616;5.426;2023-03-14T05:17:15;98716.94;;;8.10;100.00
62420;BME280;48460;51.616;5.426;2023-03-14T05:22:43;98711.47;;;8.13;100.00
62420;BME280;48460;51.616;5.426;2023-03-14T05:25:20;98717.19;;;8.18;100.00
62420;BME280;48460;51.616;5.426;2023-03-14T05:27:56;98727.44;;;8.21;100.00
62420;BME280;48460;51.616;5.426;2023-03-14T05:30:34;98714.19;;;8.12;100.00
62420;BME280;48460;51.616;5.426;2023-03-14T05:33:22;98716.69;;;8.13;100.00
62420;BME280;48460;51.616;5.426;2023-03-14T05:36:09;98720.41;;;8.22;100.00
62420;BME280;48460;51.616;5.426;2023-03-14T05:39:07;98703.28;;;8.18;100.00
62420;BME280;48460;51.616;5.426;2023-03-14T05:41:49;98687.75;;;8.15;100.00
62420;BME280;48460;51.616;5.426;2023-03-14T05:44:46;98683.97;;;8.19;100.00
62420;BME280;48460;51.616;5.426;2023-03-14T05:47:35;98684.72;;;8.21;100.00
62420;BME280;48460;51.616;5.426;2023-03-14T05:50:06;98676.22;;;8.17;100.00
62420;BME280;48460;51.616;5.426;2023-03-14T05:52:44;98669.00;;;8.21;100.00
62420;BME280;48460;51.616;5.426;2023-03-14T05:55:30;98675.16;;;8.20;100.00
62420;BME280;48460;51.616;5.426;2023-03-14T05:58:00;98678.75;;;8.19;100.00
62420;BME280;48460;51.616;5.426;2023-03-14T06:04:05;98661.25;;;8.19;100.00
62420;BME280;48460;51.616;5.426;2023-03-14T06:06:41;98668.38;;;8.29;100.00
62420;BME280;48460;51.616;5.426;2023-03-14T06:09:10;98680.06;;;8.36;100.00
62420;BME280;48460;51.616;5.426;2023-03-14T06:14:57;98675.28;;;8.30;100.00
62420;BME280;48460;51.616;5.426;2023-03-14T06:17:25;98676.72;;;8.34;100.00
62420;BME280;48460;51.616;5.426;2023-03-14T06:20:00;98684.59;;;8.34;100.00
62420;BME280;48460;51.616;5.426;2023-03-14T06:22:38;98686.25;;;8.35;100.00
62420;BME280;48460;51.616;5.426;2023-03-14T06:28:05;98698.66;;;8.44;100.00
62420;BME280;48460;51.616;5.426;2023-03-14T06:30:48;98688.03;;;8.34;100.00
62420;BME280;48460;51.616;5.426;2023-03-14T06:36:27;98690.53;;;8.36;100.00
62420;BME280;48460;51.616;5.426;2023-03-14T06:39:08;98719.75;;;8.42;100.00
62420;BME280;48460;51.616;5.426;2023-03-14T06:41:41;98711.75;;;8.44;100.00
62420;BME280;48460;51.616;5.426;2023-03-14T06:44:14;98707.22;;;8.46;100.00
62420;BME280;48460;51.616;5.426;2023-03-14T06:46:58;98713.78;;;8.52;100.00
62420;BME280;48460;51.616;5.426;2023-03-14T06:49:34;98702.00;;;8.46;100.00
62420;BME280;48460;51.616;5.426;2023-03-14T06:52:16;98707.00;;;8.49;100.00
62420;BME280;48460;51.616;5.426;2023-03-14T06:58:34;98710.78;;;8.56;100.00
62420;BME280;48460;51.616;5.426;2023-03-14T07:01:29;98717.00;;;8.55;100.00
62420;BME280;48460;51.616;5.426;2023-03-14T07:04:06;98707.72;;;8.51;100.00
62420;BME280;48460;51.616;5.426;2023-03-14T07:06:44;98715.09;;;8.57;100.00
62420;BME280;48460;51.616;5.426;2023-03-14T07:09:15;98714.03;;;8.49;100.00
62420;BME280;48460;51.616;5.426;2023-03-14T07:11:43;98709.50;;;8.51;100.00
62420;BME280;48460;51.616;5.426;2023-03-14T07:14:11;98717.56;;;8.48;100.00
62420;BME280;48460;51.616;5.426;2023-03-14T07:16:37;98713.53;;;8.43;100.00
62420;BME280;48460;51.616;5.426;2023-03-14T07:19:03;98805.72;;;8.49;100.00
62420;BME280;48460;51.616;5.426;2023-03-14T07:21:28;98830.44;;;8.44;100.00
62420;BME280;48460;51.616;5.426;2023-03-14T07:23:59;98827.25;;;8.17;100.00
62420;BME280;48460;51.616;5.426;2023-03-14T07:26:27;98838.47;;;7.95;100.00
62420;BME280;48460;51.616;5.426;2023-03-14T07:28:52;98857.94;;;7.80;100.00
62420;BME280;48460;51.616;5.426;2023-03-14T07:31:18;98869.47;;;7.64;100.00
62420;BME280;48460;51.616;5.426;2023-03-14T07:33:45;98866.50;;;7.45;100.00
62420;BME280;48460;51.616;5.426;2023-03-14T07:36:16;98883.78;;;7.35;100.00
62420;BME280;48460;51.616;5.426;2023-03-14T07:38:53;98888.72;;;7.26;100.00
62420;BME280;48460;51.616;5.426;2023-03-14T07:41:38;98893.56;;;7.20;100.00
62420;BME280;48460;51.616;5.426;2023-03-14T07:44:17;98910.16;;;7.19;100.00
62420;BME280;48460;51.616;5.426;2023-03-14T07:46:42;98921.88;;;7.13;100.00
62420;BME280;48460;51.616;5.426;2023-03-14T07:49:08;98909.44;;;7.04;100.00
62420;BME280;48460;51.616;5.426;2023-03-14T07:51:36;98918.22;;;7.03;100.00
62420;BME280;48460;51.616;5.426;2023-03-14T07:54:10;98934.44;;;7.08;100.00
62420;BME280;48460;51.616;5.426;2023-03-14T07:56:45;98935.25;;;7.08;100.00
62420;BME280;48460;51.616;5.426;2023-03-14T07:59:13;98945.50;;;7.12;100.00
62420;BME280;48460;51.616;5.426;2023-03-14T08:02:07;98949.78;;;7.13;100.00
62420;BME280;48460;51.616;5.426;2023-03-14T08:04:40;98960.66;;;7.06;100.00
62420;BME280;48460;51.616;5.426;2023-03-14T08:07:06;98969.25;;;7.08;100.00
62420;BME280;48460;51.616;5.426;2023-03-14T08:09:34;98979.59;;;7.10;100.00
62420;BME280;48460;51.616;5.426;2023-03-14T08:12:13;98993.28;;;7.14;100.00
62420;BME280;48460;51.616;5.426;2023-03-14T08:14:46;98991.53;;;7.14;100.00
62420;BME280;48460;51.616;5.426;2023-03-14T08:17:15;99006.66;;;7.09;100.00
62420;BME280;48460;51.616;5.426;2023-03-14T08:19:41;99006.47;;;7.12;100.00
62420;BME280;48460;51.616;5.426;2023-03-14T08:22:09;99041.59;;;7.21;100.00
62420;BME280;48460;51.616;5.426;2023-03-14T08:24:44;99034.81;;;7.18;100.00
62420;BME280;48460;51.616;5.426;2023-03-14T08:27:14;99057.09;;;7.24;100.00
62420;BME280;48460;51.616;5.426;2023-03-14T08:30:01;99060.13;;;7.18;100.00
62420;BME280;48460;51.616;5.426;2023-03-14T08:32:32;99065.22;;;7.19;100.00
62420;BME280;48460;51.616;5.426;2023-03-14T08:35:10;99077.25;;;7.22;100.00
62420;BME280;48460;51.616;5.426;2023-03-14T08:37:37;99103.41;;;7.35;100.00
62420;BME280;48460;51.616;5.426;2023-03-14T08:40:13;99097.06;;;7.39;100.00
62420;BME280;48460;51.616;5.426;2023-03-14T08:42:41;99107.94;;;7.45;100.00
62420;BME280;48460;51.616;5.426;2023-03-14T08:45:25;99102.09;;;7.42;100.00
62420;BME280;48460;51.616;5.426;2023-03-14T08:47:59;99112.44;;;7.43;100.00
62420;BME280;48460;51.616;5.426;2023-03-14T08:50:37;99126.16;;;7.47;100.00
62420;BME280;48460;51.616;5.426;2023-03-14T08:53:03;99119.84;;;7.37;100.00
62420;BME280;48460;51.616;5.426;2023-03-14T08:55:29;99139.44;;;7.44;100.00
62420;BME280;48460;51.616;5.426;2023-03-14T08:58:09;99138.28;;;7.48;100.00
62420;BME280;48460;51.616;5.426;2023-03-14T09:00:40;99160.88;;;7.49;100.00
62420;BME280;48460;51.616;5.426;2023-03-14T09:03:08;99157.44;;;7.48;100.00
62420;BME280;48460;51.616;5.426;2023-03-14T09:05:38;99175.41;;;7.40;100.00
62420;BME280;48460;51.616;5.426;2023-03-14T09:08:04;99186.38;;;7.33;100.00
62420;BME280;48460;51.616;5.426;2023-03-14T09:10:35;99211.69;;;7.32;100.00
62420;BME280;48460;51.616;5.426;2023-03-14T09:13:01;99218.56;;;7.20;100.00
62420;BME280;48460;51.616;5.426;2023-03-14T09:15:32;99233.75;;;7.14;100.00
62420;BME280;48460;51.616;5.426;2023-03-14T09:18:09;99236.88;;;7.06;100.00
62420;BME280;48460;51.616;5.426;2023-03-14T09:20:37;99246.50;;;7.05;100.00
62420;BME280;48460;51.616;5.426;2023-03-14T09:23:07;99248.44;;;7.02;100.00
62420;BME280;48460;51.616;5.426;2023-03-14T09:25:37;99276.38;;;7.01;100.00
62420;BME280;48460;51.616;5.426;2023-03-14T09:31:12;99302.34;;;6.61;100.00
62420;BME280;48460;51.616;5.426;2023-03-14T09:33:40;99310.72;;;6.52;100.00
62420;BME280;48460;51.616;5.426;2023-03-14T09:36:14;99331.34;;;6.43;100.00
62420;BME280;48460;51.616;5.426;2023-03-14T09:38:42;99339.34;;;6.39;100.00
62420;BME280;48460;51.616;5.426;2023-03-14T09:41:27;99360.25;;;6.39;100.00
62420;BME280;48460;51.616;5.426;2023-03-14T09:44:14;99384.94;;;6.34;100.00
62420;BME280;48460;51.616;5.426;2023-03-14T09:46:45;99385.66;;;6.22;100.00
62420;BME280;48460;51.616;5.426;2023-03-14T09:49:32;99403.69;;;6.41;100.00
62420;BME280;48460;51.616;5.426;2023-03-14T09:52:42;99408.41;;;6.64;100.00
62420;BME280;48460;51.616;5.426;2023-03-14T09:55:19;99427.97;;;7.01;100.00
62420;BME280;48460;51.616;5.426;2023-03-14T09:57:59;99411.00;;;7.23;100.00
62420;BME280;48460;51.616;5.426;2023-03-14T10:00:28;99443.75;;;7.43;100.00
62420;BME280;48460;51.616;5.426;2023-03-14T10:05:55;99466.72;;;7.66;100.00
62420;BME280;48460;51.616;5.426;2023-03-14T10:08:26;99473.91;;;7.77;100.00
62420;BME280;48460;51.616;5.426;2023-03-14T10:10:52;99481.97;;;7.74;100.00
62420;BME280;48460;51.616;5.426;2023-03-14T10:13:33;99505.88;;;7.68;100.00
62420;BME280;48460;51.616;5.426;2023-03-14T10:16:07;99521.28;;;7.58;100.00
62420;BME280;48460;51.616;5.426;2023-03-14T10:18:35;99517.94;;;7.42;100.00
62420;BME280;48460;51.616;5.426;2023-03-14T10:21:20;99539.88;;;7.39;100.00
62420;BME280;48460;51.616;5.426;2023-03-14T10:23:55;99562.84;;;7.34;100.00
62420;BME280;48460;51.616;5.426;2023-03-14T10:26:43;99569.03;;;7.03;100.00
62420;BME280;48460;51.616;5.426;2023-03-14T10:29:13;99577.41;;;6.94;100.00
62420;BME280;48460;51.616;5.426;2023-03-14T10:31:54;99588.69;;;6.94;100.00
62420;BME280;48460;51.616;5.426;2023-03-14T10:34:38;99594.09;;;6.91;100.00
62420;BME280;48460;51.616;5.426;2023-03-14T10:39:48;99615.41;;;6.99;100.00
62420;BME280;48460;51.616;5.426;2023-03-14T10:42:39;99633.38;;;7.05;100.00
62420;BME280;48460;51.616;5.426;2023-03-14T10:45:30;99636.63;;;7.09;100.00
62420;BME280;48460;51.616;5.426;2023-03-14T10:48:04;99643.53;;;7.26;100.00
62420;BME280;48460;51.616;5.426;2023-03-14T10:50:31;99661.31;;;7.49;100.00
62420;BME280;48460;51.616;5.426;2023-03-14T10:53:03;99660.41;;;7.50;100.00
62420;BME280;48460;51.616;5.426;2023-03-14T10:55:43;99669.69;;;7.56;100.00
62420;BME280;48460;51.616;5.426;2023-03-14T10:58:34;99691.56;;;7.69;100.00
62420;BME280;48460;51.616;5.426;2023-03-14T11:01:26;99691.53;;;7.85;100.00
62420;BME280;48460;51.616;5.426;2023-03-14T11:12:58;99738.56;;;8.01;100.00
62420;BME280;48460;51.616;5.426;2023-03-14T11:18:27;99777.66;;;7.74;100.00
62420;BME280;48460;51.616;5.426;2023-03-14T11:27:06;99798.19;;;6.87;100.00
62420;BME280;48460;51.616;5.426;2023-03-14T11:29:46;99819.03;;;6.55;100.00
62420;BME280;48460;51.616;5.426;2023-03-14T11:32:42;99827.00;;;6.52;100.00
62420;BME280;48460;51.616;5.426;2023-03-14T11:35:36;99828.69;;;6.53;100.00
62420;BME280;48460;51.616;5.426;2023-03-14T11:38:13;99835.28;;;6.60;100.00
62420;BME280;48460;51.616;5.426;2023-03-14T11:40:47;99837.00;;;6.61;100.00
62420;BME280;48460;51.616;5.426;2023-03-14T11:43:16;99839.72;;;6.75;100.00
62420;BME280;48460;51.616;5.426;2023-03-14T11:45:56;99849.88;;;6.97;100.00
62420;BME280;48460;51.616;5.426;2023-03-14T11:49:03;99852.66;;;7.59;100.00
62420;BME280;48460;51.616;5.426;2023-03-14T11:51:38;99851.31;;;7.98;100.00
62420;BME280;48460;51.616;5.426;2023-03-14T11:57:05;99902.66;;;7.85;100.00
62420;BME280;48460;51.616;5.426;2023-03-14T12:02:33;99915.47;;;6.93;100.00
62420;BME280;48460;51.616;5.426;2023-03-14T12:05:40;99934.84;;;6.71;100.00
62420;BME280;48460;51.616;5.426;2023-03-14T12:10:39;99922.72;;;6.53;100.00
62420;BME280;48460;51.616;5.426;2023-03-14T12:13:10;99933.69;;;6.77;100.00
62420;BME280;48460;51.616;5.426;2023-03-14T12:15:48;99942.84;;;7.03;100.00
62420;BME280;48460;51.616;5.426;2023-03-14T12:18:40;99938.75;;;7.30;100.00
62420;BME280;48460;51.616;5.426;2023-03-14T12:21:11;99940.41;;;7.96;100.00
62420;BME280;48460;51.616;5.426;2023-03-14T12:23:52;99952.44;;;8.77;98.41
62420;BME280;48460;51.616;5.426;2023-03-14T12:26:26;99944.47;;;9.23;90.30
62420;BME280;48460;51.616;5.426;2023-03-14T12:31:43;99973.66;;;9.88;91.03
62420;BME280;48460;51.616;5.426;2023-03-14T12:50:38;99989.00;;;13.68;66.93
62420;BME280;48460;51.616;5.426;2023-03-14T12:56:23;100009.63;;;13.86;65.37
62420;BME280;48460;51.616;5.426;2023-03-14T12:59:32;99999.44;;;13.70;57.66
62420;BME280;48460;51.616;5.426;2023-03-14T13:01:48;100009.53;;;13.42;67.07
62420;BME280;48460;51.616;5.426;2023-03-14T13:04:19;100004.59;;;13.94;56.58
62420;BME280;48460;51.616;5.426;2023-03-14T13:07:00;100008.19;;;14.04;54.72
62420;BME280;48460;51.616;5.426;2023-03-14T13:12:16;100029.84;;;13.98;51.78
62420;BME280;48460;51.616;5.426;2023-03-14T13:14:48;100028.94;;;14.31;50.23
62420;BME280;48460;51.616;5.426;2023-03-14T13:17:15;100053.19;;;14.36;45.65
62420;BME280;48460;51.616;5.426;2023-03-14T13:19:53;100052.84;;;14.30;46.16
62420;BME280;48460;51.616;5.426;2023-03-14T13:22:24;100068.66;;;13.86;48.38
62420;BME280;48460;51.616;5.426;2023-03-14T13:25:10;100069.78;;;13.37;46.71
62420;BME280;48460;51.616;5.426;2023-03-14T13:27:43;100084.44;;;13.53;50.57
62420;BME280;48460;51.616;5.426;2023-03-14T13:30:38;100077.63;;;14.18;42.70
62420;BME280;48460;51.616;5.426;2023-03-14T13:33:10;100090.84;;;14.40;42.33
62420;BME280;48460;51.616;5.426;2023-03-14T13:35:43;100095.13;;;15.07;45.26
62420;BME280;48460;51.616;5.426;2023-03-14T13:38:37;100092.44;;;15.39;47.21
62420;BME280;48460;51.616;5.426;2023-03-14T13:41:10;100109.13;;;15.51;46.83
62420;BME280;48460;51.616;5.426;2023-03-14T13:43:40;100109.94;;;15.93;41.03
62420;BME280;48460;51.616;5.426;2023-03-14T13:46:20;100113.34;;;15.75;39.29
62420;BME280;48460;51.616;5.426;2023-03-14T13:49:05;100114.69;;;15.48;41.45
62420;BME280;48460;51.616;5.426;2023-03-14T13:51:38;100127.13;;;15.68;40.06
62420;BME280;48460;51.616;5.426;2023-03-14T13:54:13;100132.50;;;15.46;40.28
62420;BME280;48460;51.616;5.426;2023-03-14T13:57:00;100139.16;;;15.40;40.78
62420;BME280;48460;51.616;5.426;2023-03-14T13:59:30;100149.63;;;15.42;38.69
62420;BME280;48460;51.616;5.426;2023-03-14T14:02:00;100158.44;;;15.42;39.91
62420;BME280;48460;51.616;5.426;2023-03-14T14:04:29;100175.66;;;15.04;38.42
62420;BME280;48460;51.616;5.426;2023-03-14T14:07:06;100169.59;;;14.25;40.41
62420;BME280;48460;51.616;5.426;2023-03-14T14:09:39;100181.50;;;13.27;40.06
62420;BME280;48460;51.616;5.426;2023-03-14T14:12:34;100207.94;;;12.77;41.21
62420;BME280;48460;51.616;5.426;2023-03-14T14:17:38;100215.69;;;12.03;44.48
62420;BME280;48460;51.616;5.426;2023-03-14T14:20:14;100232.63;;;11.86;43.71
62420;BME280;48460;51.616;5.426;2023-03-14T14:22:43;100243.66;;;11.66;43.63
62420;BME280;48460;51.616;5.426;2023-03-14T14:25:17;100255.72;;;11.56;45.53
62420;BME280;48460;51.616;5.426;2023-03-14T14:27:56;100258.38;;;11.69;45.85
62420;BME280;48460;51.616;5.426;2023-03-14T14:30:31;100260.16;;;11.95;44.53
62420;BME280;48460;51.616;5.426;2023-03-14T14:33:21;100266.59;;;12.04;46.27
62420;BME280;48460;51.616;5.426;2023-03-14T14:36:03;100286.44;;;12.22;44.61
62420;BME280;48460;51.616;5.426;2023-03-14T14:38:28;100283.31;;;12.17;43.71
62420;BME280;48460;51.616;5.426;2023-03-14T14:40:59;100290.88;;;11.82;42.89
62420;BME280;48460;51.616;5.426;2023-03-14T14:43:38;100307.34;;;11.58;45.53
62420;BME280;48460;51.616;5.426;2023-03-14T14:46:13;100300.94;;;11.21;45.69
62420;BME280;48460;51.616;5.426;2023-03-14T14:48:46;100295.16;;;11.02;45.15
62420;BME280;48460;51.616;5.426;2023-03-14T14:51:27;100299.59;;;10.72;46.72
62420;BME280;48460;51.616;5.426;2023-03-14T14:54:21;100318.44;;;10.36;48.16
62420;BME280;48460;51.616;5.426;2023-03-14T14:57:06;100323.59;;;10.08;47.89
62420;BME280;48460;51.616;5.426;2023-03-14T14:59:42;100343.16;;;10.02;50.36
62420;BME280;48460;51.616;5.426;2023-03-14T15:02:35;100349.63;;;9.96;49.81
62420;BME280;48460;51.616;5.426;2023-03-14T15:05:03;100358.34;;;9.67;48.48
62420;BME280;48460;51.616;5.426;2023-03-14T15:07:33;100356.28;;;9.56;52.70
62420;BME280;48460;51.616;5.426;2023-03-14T15:10:01;100372.13;;;9.39;49.86
62420;BME280;48460;51.616;5.426;2023-03-14T15:12:29;100376.59;;;9.21;48.95
62420;BME280;48460;51.616;5.426;2023-03-14T15:14:57;100388.22;;;8.99;48.85
62420;BME280;48460;51.616;5.426;2023-03-14T15:17:25;100402.50;;;8.94;49.25
62420;BME280;48460;51.616;5.426;2023-03-14T15:19:51;100404.31;;;8.58;49.60
62420;BME280;48460;51.616;5.426;2023-03-14T15:22:20;100410.53;;;8.38;52.63
62420;BME280;48460;51.616;5.426;2023-03-14T15:24:46;100422.59;;;8.42;52.76
62420;BME280;48460;51.616;5.426;2023-03-14T15:27:20;100416.91;;;8.33;54.74
62420;BME280;48460;51.616;5.426;2023-03-14T15:29:51;100421.00;;;8.21;54.81
62420;BME280;48460;51.616;5.426;2023-03-14T15:32:17;100421.66;;;8.07;49.57